Time;durP1;ratioP1;P1;durP2;ratioP2;P2;SDS_P1;SDS_P2;PMS_P1;PMS_P2;Temp;Humidity;BMP_temperature;BMP_pressure;BME280_temperature;BME280_humidity;BME280_pressure;Samples;Min_cycle;Max_cycle;Signal;HPM_P1;HPM_P2
2022/11/23 00:01:36;;;;;;;32.75;18.67;;;;;;;4.51;100.00;99752.19;5003656;28;20042;-77
2022/11/23 00:04:07;;;;;;;31.30;19.20;;;;;;;3.94;100.00;99638.03;4990472;28;20062;-78
2022/11/23 00:06:33;;;;;;;31.02;16.77;;;;;;;4.77;100.00;99800.19;5001478;28;20049;-79
2022/11/23 00:08:58;;;;;;;26.95;17.88;;;;;;;4.74;100.00;99784.56;5014639;28;20080;-76
2022/11/23 00:11:26;;;;;;;27.63;18.77;;;;;;;4.71;100.00;99807.06;4996768;28;20092;-78
2022/11/23 00:13:53;;;;;;;27.25;16.65;;;;;;;3.79;100.00;99624.84;4996607;28;20061;-79
2022/11/23 00:16:27;;;;;;;28.05;20.85;;;;;;;3.97;100.00;99647.59;5010808;28;20033;-79
2022/11/23 00:18:57;;;;;;;25.50;16.85;;;;;;;4.85;100.00;99795.97;4991574;28;20045;-79
2022/11/23 00:21:24;;;;;;;26.52;18.13;;;;;;;3.89;100.00;99613.75;4972864;28;20054;-79
2022/11/23 00:23:50;;;;;;;30.05;18.05;;;;;;;4.82;100.00;99777.75;4981478;28;20075;-80
2022/11/23 00:26:17;;;;;;;23.75;18.27;;;;;;;3.95;100.00;99603.44;4991980;28;20041;-79
2022/11/23 00:28:43;;;;;;;23.98;17.05;;;;;;;4.75;100.00;99762.94;5008895;28;20128;-78
2022/11/23 00:31:11;;;;;;;31.35;16.58;;;;;;;4.10;100.00;99646.06;5000010;28;20466;-80
2022/11/23 00:33:37;;;;;;;29.80;18.48;;;;;;;4.83;100.00;99760.44;4994976;28;20046;-79
2022/11/23 00:36:04;;;;;;;27.90;18.95;;;;;;;4.79;100.00;99763.84;4988429;28;20053;-80
2022/11/23 00:38:30;;;;;;;28.75;17.27;;;;;;;3.90;100.00;99592.13;4990365;28;20528;-79
2022/11/23 00:40:59;;;;;;;29.65;18.33;;;;;;;4.85;100.00;99750.94;5002163;28;20046;-80
2022/11/23 00:43:26;;;;;;;30.15;17.60;;;;;;;4.90;100.00;99735.38;5022245;28;20053;-78
2022/11/23 00:46:05;;;;;;;32.17;19.92;;;;;;;4.20;100.00;99622.81;5013800;28;20061;-79
2022/11/23 00:48:31;;;;;;;27.08;18.02;;;;;;;4.67;100.00;99716.91;4978884;28;20058;-79
2022/11/23 00:50:58;;;;;;;28.08;19.35;;;;;;;4.36;100.00;99656.78;4982403;28;20395;-78
2022/11/23 00:53:23;;;;;;;31.73;20.98;;;;;;;4.91;100.00;99731.91;5005018;28;20050;-78
2022/11/23 00:55:53;;;;;;;22.63;16.08;;;;;;;4.95;100.00;99718.13;5016569;28;20028;-80
2022/11/23 00:58:20;;;;;;;33.38;17.88;;;;;;;4.65;100.00;99660.59;5019098;28;20041;-79
2022/11/23 01:00:45;;;;;;;29.58;17.27;;;;;;;4.98;100.00;99723.34;4997935;28;20132;-79
2022/11/23 01:03:11;;;;;;;28.98;18.73;;;;;;;5.05;100.00;99743.34;4989874;28;20570;-79
2022/11/23 01:05:37;;;;;;;35.03;19.95;;;;;;;4.94;100.00;99726.75;5005078;28;20575;-79
2022/11/23 01:08:04;;;;;;;27.85;16.90;;;;;;;4.27;100.00;99591.75;5002281;28;20045;-79
2022/11/23 01:10:30;;;;;;;32.13;17.33;;;;;;;4.21;100.00;99589.91;5008602;28;20049;-77
2022/11/23 01:12:56;;;;;;;23.27;14.20;;;;;;;4.74;100.00;99667.63;5012694;28;20065;-80
2022/11/23 01:15:22;;;;;;;30.88;19.20;;;;;;;4.39;100.00;99579.75;5014803;28;21106;-81
2022/11/23 01:17:48;;;;;;;35.42;16.80;;;;;;;5.10;100.00;99709.59;4988227;28;20054;-77
2022/11/23 01:20:14;;;;;;;30.02;16.77;;;;;;;4.43;100.00;99596.25;5004652;28;20061;-78
2022/11/23 01:22:39;;;;;;;26.92;15.63;;;;;;;4.31;100.00;99584.00;5007163;28;20045;-78
2022/11/23 01:25:06;;;;;;;25.75;16.38;;;;;;;4.31;100.00;99564.94;5008555;28;20034;-78
2022/11/23 01:27:31;;;;;;;28.13;18.65;;;;;;;4.19;100.00;99552.69;5007794;28;20152;-77
2022/11/23 01:29:57;;;;;;;23.10;15.25;;;;;;;3.88;100.00;99508.19;5006582;28;20394;-79
2022/11/23 01:32:22;;;;;;;36.75;18.13;;;;;;;5.10;100.00;99704.41;5004481;28;20410;-80
2022/11/23 01:34:48;;;;;;;33.45;17.85;;;;;;;4.91;100.00;99672.13;4986279;28;20088;-77
2022/11/23 01:37:13;;;;;;;26.10;15.82;;;;;;;3.68;100.00;99466.44;5012184;28;20029;-78
2022/11/23 01:39:39;;;;;;;24.08;15.60;;;;;;;4.74;100.00;99619.97;5025656;28;20053;-77
2022/11/23 01:42:07;;;;;;;27.77;17.20;;;;;;;5.03;100.00;99667.94;5009509;28;20061;-75
2022/11/23 01:44:35;;;;;;;29.33;17.55;;;;;;;5.14;100.00;99673.25;4987924;28;20527;-77
2022/11/23 01:47:05;;;;;;;27.85;16.92;;;;;;;5.06;100.00;99648.91;4987412;28;20125;-76
2022/11/23 01:49:44;;;;;;;26.40;17.50;;;;;;;5.06;100.00;99646.31;5016282;28;20766;-76
2022/11/23 01:52:14;;;;;;;25.17;16.25;;;;;;;4.89;100.00;99620.13;5024342;28;20095;-77
2022/11/23 01:54:48;;;;;;;27.48;16.17;;;;;;;5.20;100.00;99675.91;5006878;28;20045;-77
2022/11/23 01:57:35;;;;;;;;;;;;;;;5.34;100.00;99655.25;5005241;28;20084;-77
2022/11/23 02:00:01;;;;;;;25.88;17.90;;;;;;;5.34;100.00;99655.25;5002950;28;19949;-80
2022/11/23 02:02:29;;;;;;;29.35;15.65;;;;;;;5.35;100.00;99650.91;5004228;28;20062;-78
2022/11/23 02:04:57;;;;;;;29.35;16.48;;;;;;;4.45;100.00;99511.44;5006047;28;20073;-77
2022/11/23 02:07:24;;;;;;;19.98;13.52;;;;;;;5.22;100.00;99652.50;5017272;28;20083;-78
2022/11/23 02:09:51;;;;;;;23.33;14.75;;;;;;;4.43;100.00;99503.63;5007574;28;20038;-76
2022/11/23 02:12:16;;;;;;;25.20;16.10;;;;;;;4.60;100.00;99547.94;5011300;28;20045;-79
2022/11/23 02:14:42;;;;;;;26.63;15.98;;;;;;;4.39;100.00;99486.25;5011102;28;20057;-79
2022/11/23 02:17:08;;;;;;;24.13;16.75;;;;;;;4.28;100.00;99476.63;5009990;28;20168;-77
2022/11/23 02:20:02;;;;;;;24.85;14.75;;;;;;;5.29;100.00;99642.19;5007107;28;20045;-76
2022/11/23 02:22:56;;;;;;;25.95;15.43;;;;;;;5.26;100.00;99639.53;5005924;28;20026;-78
2022/11/23 02:25:34;;;;;;;29.00;17.77;;;;;;;4.56;100.00;99529.72;4975791;28;20046;-77
2022/11/23 02:28:00;;;;;;;27.00;16.27;;;;;;;5.17;100.00;99626.44;5007832;28;20086;-77
2022/11/23 02:30:28;;;;;;;31.52;18.40;;;;;;;4.31;100.00;99502.59;5007408;28;20625;-78
2022/11/23 02:32:55;;;;;;;29.23;19.08;;;;;;;4.93;100.00;99610.63;4998722;28;20058;-76
2022/11/23 02:35:20;;;;;;;25.55;17.15;;;;;;;4.05;100.00;99466.00;4986604;28;20778;-76
2022/11/23 02:37:47;;;;;;;26.20;18.05;;;;;;;5.17;100.00;99641.19;4987906;28;20050;-76
2022/11/23 02:40:34;;;;;;;27.33;16.40;;;;;;;5.28;100.00;99647.38;5021933;28;20040;-75
2022/11/23 02:43:00;;;;;;;25.25;15.52;;;;;;;4.79;100.00;99580.19;5008387;28;20594;-78
2022/11/23 02:45:33;;;;;;;27.23;16.77;;;;;;;5.12;100.00;99617.75;4989609;28;20065;-76
2022/11/23 02:47:59;;;;;;;26.85;18.75;;;;;;;4.81;100.00;99578.47;5006832;28;20053;-77
2022/11/23 02:50:25;;;;;;;23.48;15.23;;;;;;;4.29;100.00;99484.44;4995123;28;20046;-77
2022/11/23 02:52:50;;;;;;;24.17;17.45;;;;;;;4.34;100.00;99510.44;4988534;28;20056;-78
2022/11/23 02:55:15;;;;;;;30.45;15.90;;;;;;;4.21;100.00;99466.19;5006570;28;20053;-76
2022/11/23 02:57:41;;;;;;;27.50;15.85;;;;;;;5.08;100.00;99635.06;5007457;28;20046;-76
2022/11/23 03:00:07;;;;;;;26.52;16.67;;;;;;;4.62;100.00;99537.56;5001284;28;20053;-77
2022/11/23 03:02:33;;;;;;;29.00;17.65;;;;;;;5.17;100.00;99625.59;4973470;28;20042;-75
2022/11/23 03:04:58;;;;;;;28.73;19.15;;;;;;;4.47;100.00;99507.09;4996278;28;20144;-75
2022/11/23 03:07:24;;;;;;;25.73;17.42;;;;;;;4.70;100.00;99540.25;5020602;28;20045;-76
2022/11/23 03:09:49;;;;;;;31.08;19.08;;;;;;;4.80;100.00;99550.75;5029024;28;20036;-79
2022/11/23 03:12:15;;;;;;;26.65;16.55;;;;;;;4.24;100.00;99447.19;5014060;28;20060;-75
2022/11/23 03:14:41;;;;;;;26.52;17.50;;;;;;;4.44;100.00;99465.53;4980539;28;20054;-78
2022/11/23 03:17:06;;;;;;;32.53;18.45;;;;;;;4.68;100.00;99505.56;5003920;28;20050;-77
2022/11/23 03:19:32;;;;;;;26.95;18.02;;;;;;;5.34;100.00;99602.31;5009983;28;20417;-79
2022/11/23 03:21:57;;;;;;;34.55;17.27;;;;;;;5.38;100.00;99610.16;5010343;28;20029;-82
2022/11/23 03:24:23;;;;;;;26.58;16.55;;;;;;;5.33;100.00;99595.38;5009124;28;20046;-77
2022/11/23 03:26:48;;;;;;;29.10;16.17;;;;;;;4.39;100.00;99415.28;5009022;28;20045;-79
2022/11/23 03:29:14;;;;;;;23.92;15.93;;;;;;;5.18;100.00;99552.78;5009153;28;20052;-78
2022/11/23 03:31:39;;;;;;;29.20;15.45;;;;;;;5.34;100.00;99587.59;5009600;28;20168;-78
2022/11/23 03:34:05;;;;;;;25.25;17.25;;;;;;;5.31;100.00;99565.88;4998312;28;20050;-78
2022/11/23 03:36:33;;;;;;;23.05;16.00;;;;;;;5.36;100.00;99554.69;4989902;28;20054;-79
2022/11/23 03:38:58;;;;;;;24.40;16.73;;;;;;;5.50;100.00;99585.97;5004215;28;20051;-78
2022/11/23 03:41:24;;;;;;;30.98;18.50;;;;;;;5.64;100.00;99622.50;5028661;28;20057;-77
2022/11/23 03:43:49;;;;;;;28.30;16.98;;;;;;;4.85;100.00;99454.63;5006093;28;20053;-77
2022/11/23 03:46:15;;;;;;;31.10;16.75;;;;;;;4.81;100.00;99452.84;4994347;28;20061;-76
2022/11/23 03:48:40;;;;;;;30.05;17.67;;;;;;;5.03;100.00;99488.56;4971836;28;20058;-76
2022/11/23 03:51:08;;;;;;;27.63;17.92;;;;;;;5.72;100.00;99582.66;4989685;28;20514;-76
2022/11/23 03:53:34;;;;;;;28.85;18.08;;;;;;;5.58;100.00;99570.44;4996798;28;20115;-76
2022/11/23 03:55:59;;;;;;;29.92;17.92;;;;;;;5.32;100.00;99513.88;4983378;28;20046;-75
2022/11/23 03:58:25;;;;;;;26.98;18.63;;;;;;;5.07;100.00;99453.03;4980197;28;20490;-76
2022/11/23 04:00:50;;;;;;;25.42;19.10;;;;;;;5.06;100.00;99452.19;5000362;28;20805;-75
2022/11/23 04:03:16;;;;;;;27.67;18.05;;;;;;;5.00;100.00;99428.72;5020528;28;20611;-78
2022/11/23 04:05:42;;;;;;;22.15;14.65;;;;;;;5.56;100.00;99520.09;5011207;28;20050;-78
2022/11/23 04:08:08;;;;;;;27.73;18.90;;;;;;;5.86;100.00;99566.25;5024336;28;20083;-79
2022/11/23 04:10:33;;;;;;;30.08;18.67;;;;;;;5.93;100.00;99576.69;5029533;28;20034;-78
2022/11/23 04:12:59;;;;;;;29.42;20.05;;;;;;;5.98;100.00;99584.56;5022277;28;20473;-79
2022/11/23 04:15:24;;;;;;;25.67;18.85;;;;;;;5.68;100.00;99517.56;5009007;28;20069;-77
2022/11/23 04:17:50;;;;;;;28.77;18.20;;;;;;;5.31;100.00;99465.31;5008561;28;20144;-76
2022/11/23 04:20:15;;;;;;;26.80;19.77;;;;;;;5.19;100.00;99447.91;5008016;28;20057;-77
2022/11/23 04:22:41;;;;;;;42.33;20.05;;;;;;;5.13;100.00;99427.09;5005490;28;20049;-79
2022/11/23 04:25:08;;;;;;;33.47;18.98;;;;;;;5.16;100.00;99415.84;5008720;28;20041;-78
2022/11/23 04:27:34;;;;;;;28.45;18.15;;;;;;;5.35;100.00;99454.06;5008864;28;20112;-79
2022/11/23 04:29:59;;;;;;;33.47;18.92;;;;;;;5.25;100.00;99427.16;5008561;28;20791;-77
2022/11/23 04:32:28;;;;;;;30.98;18.67;;;;;;;6.03;100.00;99564.63;5009098;28;20042;-77
2022/11/23 04:34:53;;;;;;;28.02;17.65;;;;;;;6.08;100.00;99564.66;5007918;28;20108;-78
2022/11/23 04:37:19;;;;;;;24.75;16.65;;;;;;;5.54;100.00;99470.66;5008445;28;20425;-77
2022/11/23 04:39:44;;;;;;;29.90;16.95;;;;;;;5.34;100.00;99418.53;5022810;28;20033;-77
2022/11/23 04:42:11;;;;;;;30.25;19.90;;;;;;;6.13;100.00;99544.69;5028200;28;20053;-78
2022/11/23 04:44:36;;;;;;;23.85;17.27;;;;;;;6.12;100.00;99549.03;5027908;28;20049;-80
2022/11/23 04:47:02;;;;;;;25.58;17.90;;;;;;;5.37;100.00;99422.88;5018580;28;20413;-78
2022/11/23 04:49:27;;;;;;;31.15;21.13;;;;;;;5.95;100.00;99516.88;5004040;28;20490;-77
2022/11/23 04:51:53;;;;;;;23.35;17.10;;;;;;;5.44;100.00;99403.84;4991016;28;20034;-78
2022/11/23 04:54:20;;;;;;;29.92;20.58;;;;;;;6.26;100.00;99541.28;5007018;28;20172;-78
2022/11/23 04:56:46;;;;;;;28.75;18.50;;;;;;;6.30;100.00;99539.56;5006909;28;20250;-79
2022/11/23 04:59:11;;;;;;;30.95;17.20;;;;;;;6.21;100.00;99524.78;4997883;28;20466;-80
2022/11/23 05:01:37;;;;;;;31.73;20.40;;;;;;;5.63;100.00;99412.59;5006061;28;20152;-79
2022/11/23 05:04:02;;;;;;;30.83;18.83;;;;;;;6.40;100.00;99556.09;5008425;28;20524;-78
2022/11/23 05:06:28;;;;;;;27.00;18.35;;;;;;;6.46;100.00;99546.56;5010734;28;20913;-77
2022/11/23 05:08:53;;;;;;;30.25;18.98;;;;;;;6.49;100.00;99541.34;5018477;28;20046;-75
2022/11/23 05:11:19;;;;;;;24.73;18.67;;;;;;;6.47;100.00;99542.22;5007893;28;20073;-80
2022/11/23 05:13:45;;;;;;;28.80;18.10;;;;;;;6.57;100.00;99548.31;5006429;28;20157;-78
2022/11/23 05:16:10;;;;;;;31.75;18.33;;;;;;;6.49;100.00;99556.13;5002807;28;20166;-76
2022/11/23 05:18:36;;;;;;;26.98;17.40;;;;;;;6.54;100.00;99534.41;4986219;28;20422;-77
2022/11/23 05:21:01;;;;;;;31.27;20.52;;;;;;;5.71;100.00;99400.44;4987287;28;20054;-79
2022/11/23 05:23:27;;;;;;;30.83;20.08;;;;;;;5.89;100.00;99410.06;4993307;28;20127;-76
2022/11/23 05:25:52;;;;;;;30.50;20.42;;;;;;;5.94;100.00;99423.97;5005569;28;20034;-76
2022/11/23 05:28:20;;;;;;;25.48;17.95;;;;;;;6.73;100.00;99522.28;4999821;28;20801;-78
2022/11/23 05:30:46;;;;;;;29.83;19.00;;;;;;;5.79;100.00;99388.34;4993715;28;20068;-78
2022/11/23 05:33:12;;;;;;;31.02;19.30;;;;;;;6.61;100.00;99537.91;5005814;28;20050;-77
2022/11/23 05:35:37;;;;;;;26.05;17.10;;;;;;;6.41;100.00;99490.94;4989055;28;20061;-77
2022/11/23 05:38:03;;;;;;;30.08;19.45;;;;;;;6.66;100.00;99537.91;5006467;28;20037;-76
2022/11/23 05:40:29;;;;;;;26.88;16.77;;;;;;;6.45;100.00;99486.63;5007208;28;20033;-77
2022/11/23 05:42:56;;;;;;;25.65;16.90;;;;;;;6.67;100.00;99513.56;5006964;28;20042;-80
2022/11/23 05:45:21;;;;;;;24.92;17.90;;;;;;;5.96;100.00;99393.63;4977690;28;20081;-77
2022/11/23 05:47:52;;;;;;;23.45;16.90;;;;;;;6.04;100.00;99393.63;4988891;28;20042;-81
2022/11/23 05:50:18;;;;;;;28.23;17.75;;;;;;;5.92;100.00;99381.41;5007384;28;20046;-81
2022/11/23 05:52:43;;;;;;;29.33;20.25;;;;;;;5.98;100.00;99396.22;5005513;28;20510;-77
2022/11/23 05:55:09;;;;;;;29.77;16.58;;;;;;;6.32;100.00;99441.41;5005532;28;20137;-77
2022/11/23 05:57:36;;;;;;;26.83;17.70;;;;;;;6.60;100.00;99462.28;4988628;28;20418;-75
2022/11/23 06:00:03;;;;;;;28.45;18.80;;;;;;;6.28;100.00;99421.47;4988237;28;20169;-76
2022/11/23 06:02:29;;;;;;;27.55;18.40;;;;;;;6.99;100.00;99529.25;4970318;28;20077;-79
2022/11/23 06:04:54;;;;;;;28.75;18.58;;;;;;;6.95;100.00;99543.13;4985657;28;20478;-77
2022/11/23 06:07:19;;;;;;;27.80;18.85;;;;;;;6.23;100.00;99408.44;5006711;28;20425;-77
2022/11/23 06:09:45;;;;;;;30.17;21.25;;;;;;;6.63;100.00;99472.75;5012599;28;20429;-76
2022/11/23 06:12:10;;;;;;;27.88;19.60;;;;;;;6.16;100.00;99404.09;4987813;28;20050;-75
2022/11/23 06:14:36;;;;;;;35.25;20.20;;;;;;;6.92;100.00;99530.97;5006752;28;20120;-77
2022/11/23 06:17:01;;;;;;;30.15;19.58;;;;;;;6.55;100.00;99454.47;5004924;28;20121;-77
2022/11/23 06:19:28;;;;;;;27.70;18.35;;;;;;;6.90;100.00;99522.28;5007027;28;20169;-78
2022/11/23 06:21:56;;;;;;;28.90;20.33;;;;;;;6.79;100.00;99504.88;5005206;28;20346;-77
2022/11/23 06:24:22;;;;;;;31.77;21.23;;;;;;;6.95;100.00;99522.28;5005606;28;20049;-76
2022/11/23 06:26:47;;;;;;;30.02;21.05;;;;;;;6.89;100.00;99511.88;5006908;28;20054;-77
2022/11/23 06:29:13;;;;;;;31.35;21.33;;;;;;;6.45;100.00;99426.69;5006813;28;20041;-78
2022/11/23 06:31:40;;;;;;;34.17;18.67;;;;;;;6.21;100.00;99389.31;4980244;28;20060;-78
2022/11/23 06:34:05;;;;;;;29.25;17.52;;;;;;;7.00;100.00;99531.00;4997223;28;20036;-81
2022/11/23 06:36:31;;;;;;;26.08;15.60;;;;;;;6.20;100.00;99376.28;4997718;28;20789;-78
2022/11/23 06:38:57;;;;;;;27.73;19.98;;;;;;;7.00;100.00;99511.84;4994900;28;20091;-79
2022/11/23 06:41:23;;;;;;;25.92;16.80;;;;;;;6.83;100.00;99472.72;4998354;28;20061;-77
2022/11/23 06:43:49;;;;;;;24.80;17.92;;;;;;;6.43;100.00;99408.44;4991443;28;20122;-78
2022/11/23 06:46:16;;;;;;;33.13;19.63;;;;;;;7.15;100.00;99517.94;5002090;28;20034;-76
2022/11/23 06:48:44;;;;;;;23.85;18.73;;;;;;;6.32;100.00;99379.78;4993660;28;20576;-79
2022/11/23 06:51:10;;;;;;;35.75;17.10;;;;;;;7.17;100.00;99531.84;4984452;28;20053;-81
2022/11/23 06:53:36;;;;;;;32.65;18.45;;;;;;;7.04;100.00;99479.69;4990587;28;20053;-77
2022/11/23 06:56:01;;;;;;;27.38;17.73;;;;;;;6.80;100.00;99433.63;5006265;28;20053;-78
2022/11/23 06:58:27;;;;;;;28.63;19.77;;;;;;;7.33;100.00;99524.03;5009278;28;20034;-77
2022/11/23 07:00:53;;;;;;;39.10;18.52;;;;;;;6.58;100.00;99383.22;5013248;28;20064;-76
2022/11/23 07:03:23;;;;;;;28.08;19.25;;;;;;;7.38;100.00;99524.88;5029178;28;20048;-76
2022/11/23 07:05:49;;;;;;;23.30;17.23;;;;;;;6.62;100.00;99379.75;5020692;28;20050;-77
2022/11/23 07:08:15;;;;;;;26.13;17.60;;;;;;;7.45;100.00;99523.13;5023150;28;20045;-78
2022/11/23 07:10:40;;;;;;;28.48;15.80;;;;;;;7.25;100.00;99478.78;5010146;28;20042;-78
2022/11/23 07:13:07;;;;;;;25.50;16.70;;;;;;;7.53;100.00;99522.22;4991707;28;20564;-78
2022/11/23 07:15:35;;;;;;;22.88;15.70;;;;;;;7.27;100.00;99467.47;5008857;28;20141;-78
2022/11/23 07:18:01;;;;;;;21.95;16.30;;;;;;;6.83;100.00;99386.69;5005616;28;20049;-77
2022/11/23 07:20:27;;;;;;;22.30;14.23;;;;;;;7.46;100.00;99481.34;4973843;28;20045;-81
2022/11/23 07:23:19;;;;;;;22.95;16.60;;;;;;;7.64;100.00;99510.91;5005782;28;20042;-78
2022/11/23 07:25:45;;;;;;;24.33;15.07;;;;;;;6.21;100.00;99287.75;4999067;28;20057;-76
2022/11/23 07:28:12;;;;;;;33.35;17.35;;;;;;;7.56;100.00;99506.56;5002008;28;20038;-75
2022/11/23 07:30:38;;;;;;;38.63;19.58;;;;;;;7.69;100.00;99512.63;5003931;28;20054;-78
2022/11/23 07:33:07;;;;;;;25.40;18.27;;;;;;;7.51;100.00;99476.97;5005451;28;20127;-77
2022/11/23 07:35:36;;;;;;;24.50;15.85;;;;;;;6.81;100.00;99352.78;4989884;28;20042;-78
2022/11/23 07:38:08;;;;;;;24.95;18.65;;;;;;;7.73;100.00;99516.09;4986143;28;20108;-77
2022/11/23 07:40:36;;;;;;;20.13;14.38;;;;;;;6.84;100.00;99336.31;5009005;28;20057;-79
2022/11/23 07:43:03;;;;;;;24.17;16.95;;;;;;;7.82;100.00;99505.63;5007442;28;20044;-79
2022/11/23 07:45:31;;;;;;;27.27;17.15;;;;;;;7.58;100.00;99464.78;5008130;28;20054;-79
2022/11/23 07:48:02;;;;;;;22.55;18.27;;;;;;;6.94;100.00;99345.81;5008915;28;20042;-75
2022/11/23 07:50:28;;;;;;;28.40;18.02;;;;;;;7.58;100.00;99452.59;5007875;28;20402;-77
2022/11/23 07:52:53;;;;;;;25.13;18.80;;;;;;;7.15;100.00;99369.22;5006934;28;20049;-76
2022/11/23 07:55:19;;;;;;;30.85;19.80;;;;;;;7.88;100.00;99481.22;5008705;28;20497;-76
2022/11/23 07:57:44;;;;;;;29.15;19.92;;;;;;;7.86;100.00;99472.53;5008823;28;20450;-76
2022/11/23 08:00:11;;;;;;;28.17;19.15;;;;;;;7.91;100.00;99475.97;5007799;28;20081;-76
2022/11/23 08:02:37;;;;;;;22.48;17.63;;;;;;;7.83;100.00;99474.25;5015012;28;20224;-77
2022/11/23 08:05:03;;;;;;;30.80;18.08;;;;;;;6.46;100.00;99230.38;5013455;28;20513;-75
2022/11/23 08:07:28;;;;;;;27.65;16.92;;;;;;;7.90;100.00;99476.84;5013572;28;20052;-77
2022/11/23 08:09:54;;;;;;;31.38;21.10;;;;;;;7.93;100.00;99492.50;5011045;28;20030;-77
2022/11/23 08:12:19;;;;;;;27.92;19.02;;;;;;;7.85;100.00;99487.31;5008343;28;20050;-78
2022/11/23 08:14:44;;;;;;;25.77;17.33;;;;;;;7.76;100.00;99462.09;5008579;28;20046;-78
2022/11/23 08:17:10;;;;;;;27.95;19.70;;;;;;;7.12;100.00;99361.44;5007900;28;20042;-76
2022/11/23 08:19:35;;;;;;;27.67;18.83;;;;;;;7.98;100.00;99496.84;5007273;28;20038;-75
2022/11/23 08:22:01;;;;;;;28.67;21.48;;;;;;;8.04;100.00;99481.13;4980041;28;20045;-77
2022/11/23 08:24:28;;;;;;;24.75;19.40;;;;;;;7.60;100.00;99408.22;5007711;28;20045;-76
2022/11/23 08:26:53;;;;;;;30.20;21.00;;;;;;;8.21;100.00;99499.34;5004302;28;20494;-75
2022/11/23 08:29:19;;;;;;;28.85;17.23;;;;;;;7.26;100.00;99357.88;4996145;28;20038;-77
2022/11/23 08:31:45;;;;;;;25.45;18.92;;;;;;;7.30;100.00;99359.63;5001568;28;20045;-78
2022/11/23 08:34:10;;;;;;;37.08;22.58;;;;;;;8.20;100.00;99499.38;4995349;28;20042;-77
2022/11/23 08:36:37;;;;;;;28.95;21.17;;;;;;;8.03;100.00;99452.44;4970843;28;20561;-77
2022/11/23 08:39:03;;;;;;;28.63;18.98;;;;;;;7.64;100.00;99414.31;5010503;28;20077;-78
2022/11/23 08:41:28;;;;;;;31.17;23.23;;;;;;;8.12;100.00;99502.00;5000219;28;20091;-76
2022/11/23 08:43:55;;;;;;;28.02;18.92;;;;;;;7.24;100.00;99346.63;5000048;28;20049;-77
2022/11/23 08:46:20;;;;;;;27.45;20.27;;;;;;;8.15;100.00;99494.16;4970875;28;20734;-78
2022/11/23 08:48:46;;;;;;;27.75;21.30;;;;;;;7.36;100.00;99336.97;4988921;28;20293;-75
2022/11/23 08:51:12;;;;;;;34.38;26.20;;;;;;;8.21;100.00;99499.34;5010463;28;20053;-76
2022/11/23 08:53:37;;;;;;;37.53;29.13;;;;;;;8.27;100.00;99503.69;5006933;28;20430;-76
2022/11/23 08:56:07;;;;;;;34.33;24.30;;;;;;;8.09;100.00;99435.84;4997990;28;20058;-78
2022/11/23 08:58:33;;;;;;;30.92;22.92;;;;;;;8.49;100.00;99495.75;4970255;28;20084;-77
2022/11/23 09:01:00;;;;;;;27.05;19.08;;;;;;;7.65;100.00;99338.56;4988462;28;20422;-74
2022/11/23 09:03:28;;;;;;;39.03;30.50;;;;;;;8.29;100.00;99460.13;4988034;28;20046;-77
2022/11/23 09:05:58;;;;;;;41.83;29.20;;;;;;;8.00;100.00;99392.34;4989362;28;20134;-76
2022/11/23 09:08:24;;;;;;;40.85;27.67;;;;;;;8.36;100.00;99474.03;5015538;28;20065;-75
2022/11/23 09:10:49;;;;;;;32.67;25.50;;;;;;;7.83;100.00;99361.09;5012014;28;20038;-77
2022/11/23 09:13:16;;;;;;;32.03;23.23;;;;;;;7.83;100.00;99354.13;5007739;28;20041;-77
2022/11/23 09:15:41;;;;;;;33.58;27.13;;;;;;;8.24;100.00;99447.06;5006541;28;20045;-78
2022/11/23 09:18:08;;;;;;;40.60;27.83;;;;;;;7.72;100.00;99349.84;5006015;28;20050;-77
2022/11/23 09:20:33;;;;;;;42.58;29.80;;;;;;;8.66;100.00;99478.19;5006789;28;20058;-77
2022/11/23 09:22:59;;;;;;;32.70;24.40;;;;;;;7.81;100.00;99360.25;5002367;28;20461;-78
2022/11/23 09:25:24;;;;;;;39.63;28.58;;;;;;;8.28;100.00;99432.22;4993443;28;20104;-79
2022/11/23 09:27:57;;;;;;;34.35;28.00;;;;;;;8.46;100.00;99449.56;4996797;28;20038;-77
2022/11/23 09:30:23;;;;;;;42.88;30.85;;;;;;;7.80;100.00;99343.72;4999543;28;20050;-78
2022/11/23 09:32:48;;;;;;;43.17;32.90;;;;;;;7.96;100.00;99361.88;4992460;28;20064;-76
2022/11/23 09:35:15;;;;;;;37.97;29.73;;;;;;;8.41;100.00;99440.91;5006700;28;20049;-76
2022/11/23 09:37:41;;;;;;;35.35;27.67;;;;;;;8.56;100.00;99429.44;5002586;28;21219;-77
2022/11/23 09:40:13;;;;;;;34.67;26.08;;;;;;;8.21;100.00;99367.81;4999649;28;20034;-79
2022/11/23 09:42:56;;;;;;;33.90;29.40;;;;;;;8.56;100.00;99419.84;5002924;28;20052;-75
2022/11/23 09:45:42;;;;;;;31.02;20.30;;;;;;;8.56;100.00;99421.59;5005716;28;20104;-77
2022/11/23 09:48:27;;;;;;;35.95;30.08;;;;;;;8.70;100.00;99426.72;4991799;28;20067;-76
2022/11/23 09:51:00;;;;;;;35.58;24.13;;;;;;;7.95;100.00;99292.25;5004204;28;20050;-76
2022/11/23 09:53:38;;;;;;;41.50;30.25;;;;;;;7.78;100.00;99274.09;4993265;28;20057;-77
2022/11/23 09:56:13;;;;;;;39.80;29.10;;;;;;;8.71;100.00;99421.50;5006292;28;20073;-76
2022/11/23 09:58:40;;;;;;;37.65;27.40;;;;;;;8.80;100.00;99433.59;5007463;28;20060;-78
2022/11/23 10:01:14;;;;;;;45.70;28.05;;;;;;;7.87;100.00;99288.84;5017741;28;20075;-77
2022/11/23 10:03:42;;;;;;;42.80;28.35;;;;;;;8.68;100.00;99437.19;5008682;28;20088;-78
2022/11/23 10:06:10;;;;;;;35.40;26.27;;;;;;;8.73;100.00;99442.38;5006311;28;20351;-78
2022/11/23 10:09:03;;;;;;;42.30;29.08;;;;;;;8.20;100.00;99312.06;5009766;28;20115;-77
2022/11/23 10:12:10;;;;;;;58.67;37.17;;;;;;;8.84;100.00;99420.50;4999806;28;20050;-77
2022/11/23 10:15:12;;;;;;;93.32;68.85;;;;;;;8.90;100.00;99405.59;5013070;28;20050;-75
2022/11/23 10:17:53;;;;;;;77.82;56.10;;;;;;;8.98;100.00;99411.66;5006916;28;20141;-79
2022/11/23 10:20:27;;;;;;;63.53;46.78;;;;;;;8.33;100.00;99270.16;4986975;28;20043;-80
2022/11/23 10:22:58;;;;;;;44.10;35.97;;;;;;;8.62;100.00;99328.28;4999017;28;20050;-76
2022/11/23 10:25:31;;;;;;;42.72;33.17;;;;;;;8.03;100.00;99248.66;5004982;28;20046;-78
2022/11/23 10:28:01;;;;;;;47.78;32.38;;;;;;;8.98;100.00;99381.13;5007107;28;20414;-78
2022/11/23 10:30:27;;;;;;;46.03;34.17;;;;;;;8.81;100.00;99360.38;5019274;28;20056;-77
2022/11/23 10:32:55;;;;;;;46.70;33.35;;;;;;;8.98;100.00;99391.59;5022591;28;20042;-77
2022/11/23 10:35:34;;;;;;;48.38;32.90;;;;;;;8.89;100.00;99355.03;5005944;28;20128;-77
2022/11/23 10:38:19;;;;;;;49.42;36.88;;;;;;;9.16;100.00;99381.81;5002221;28;20046;-78
2022/11/23 10:41:03;;;;;;;48.13;35.38;;;;;;;9.23;100.00;99375.63;4994484;28;20042;-76
2022/11/23 10:43:44;;;;;;;42.88;31.92;;;;;;;8.95;100.00;99330.59;4986200;28;20030;-76
2022/11/23 10:46:24;;;;;;;40.42;31.88;;;;;;;9.09;100.00;99340.00;4986908;28;20057;-76
2022/11/23 10:48:50;;;;;;;48.08;33.38;;;;;;;8.85;100.00;99277.50;4995859;28;20161;-77
2022/11/23 10:51:30;;;;;;;51.35;34.00;;;;;;;9.16;100.00;99353.03;5004414;28;20054;-77
2022/11/23 10:54:00;;;;;;;47.80;34.55;;;;;;;8.88;100.00;99304.47;4996516;28;20153;-77
2022/11/23 10:56:26;;;;;;;46.78;32.38;;;;;;;8.56;100.00;99233.34;5001396;28;20088;-77
2022/11/23 10:58:52;;;;;;;51.08;33.70;;;;;;;9.16;100.00;99366.13;4990430;28;20051;-78
2022/11/23 11:01:23;;;;;;;43.63;34.22;;;;;;;9.28;100.00;99371.19;4987289;28;20052;-77
2022/11/23 11:03:51;;;;;;;46.25;32.85;;;;;;;8.42;100.00;99259.66;4986407;28;20136;-78
2022/11/23 11:06:28;;;;;;;48.00;32.00;;;;;;;8.52;100.00;99279.59;4996343;28;20417;-77
2022/11/23 11:09:00;;;;;;;51.17;36.38;;;;;;;8.56;100.00;99270.81;5008209;28;20050;-76
2022/11/23 11:11:44;;;;;;;53.20;33.90;;;;;;;8.99;100.00;99327.91;5017857;28;20049;-77
2022/11/23 11:14:12;;;;;;;;;;;;;;;9.23;100.00;99380.88;5011192;28;20152;-77
2022/11/23 11:16:47;;;;;;;43.58;32.05;;;;;;;8.58;100.00;99237.69;5004733;28;20011;-76
2022/11/23 11:19:27;;;;;;;54.30;33.95;;;;;;;9.46;100.00;99388.47;5004973;28;20038;-78
2022/11/23 11:21:53;;;;;;;49.65;34.55;;;;;;;9.28;100.00;99360.72;5005050;28;20087;-78